createdAt,value
2018-05-15T00:01:37.586Z,97322
2018-05-15T00:04:09.905Z,97321
2018-05-15T01:30:05.454Z,97343
2018-05-15T01:32:38.272Z,97342
2018-05-15T01:35:11.735Z,97337
2018-05-15T01:37:43.799Z,97336
2018-05-15T01:40:15.592Z,97331
2018-05-15T01:42:49.114Z,97341
2018-05-15T01:45:21.113Z,97343
2018-05-15T01:47:52.893Z,97351
2018-05-15T01:50:26.271Z,97344
2018-05-15T01:53:00.836Z,97353
2018-05-15T01:55:34.939Z,97351
2018-05-15T01:58:07.372Z,97360
2018-05-15T02:00:40.304Z,97359
2018-05-15T02:03:15.550Z,97357
2018-05-15T02:05:48.559Z,97357
2018-05-15T02:08:20.767Z,97357
2018-05-15T02:10:53.373Z,97356
2018-05-15T02:13:26.456Z,97360
2018-05-15T02:15:59.714Z,97360
2018-05-15T02:18:32.070Z,97361
2018-05-15T02:21:04.774Z,97356
2018-05-15T02:23:37.973Z,97362
2018-05-15T02:26:10.377Z,97361
2018-05-15T02:28:47.270Z,97361
2018-05-15T02:31:23.375Z,97360
2018-05-15T02:33:55.959Z,97362
2018-05-15T02:36:28.738Z,97362
2018-05-15T02:39:00.777Z,97361
2018-05-15T02:41:34.970Z,97371
2018-05-15T02:44:08.512Z,97368
2018-05-15T02:46:42.574Z,97362
2018-05-15T02:49:15.411Z,97367
2018-05-15T02:51:47.991Z,97367
2018-05-15T02:54:20.439Z,97368
2018-05-15T02:56:56.816Z,97364
2018-05-15T02:59:31.078Z,97369
2018-05-15T03:02:03.535Z,97378
2018-05-15T03:04:35.694Z,97386
2018-05-15T03:07:08.695Z,97383
2018-05-15T03:09:43.378Z,97378
2018-05-15T03:12:17.054Z,97376
2018-05-15T03:14:54.653Z,97382
2018-05-15T03:17:28.116Z,97385
2018-05-15T03:20:02.018Z,97388
2018-05-15T03:22:35.577Z,97388
2018-05-15T03:25:09.831Z,97394
2018-05-15T03:27:42.815Z,97394
2018-05-15T03:30:15.369Z,97392
2018-05-15T03:32:49.534Z,97396
2018-05-15T03:35:21.893Z,97398
2018-05-15T03:37:55.970Z,97399
2018-05-15T03:40:29.230Z,97400
2018-05-15T03:43:01.911Z,97406
2018-05-15T03:45:34.497Z,97408
2018-05-15T03:48:07.398Z,97409
2018-05-15T03:50:41.236Z,97410
2018-05-15T03:53:14.955Z,97411
2018-05-15T03:55:48.693Z,97418
2018-05-15T03:58:24.259Z,97420
2018-05-15T04:01:13.932Z,97422
2018-05-15T04:04:02.573Z,97430
2018-05-15T04:06:51.790Z,97429
2018-05-15T04:09:27.075Z,97431
2018-05-15T04:12:02.591Z,97439
2018-05-15T04:14:34.773Z,97441
2018-05-15T04:17:07.654Z,97445
2018-05-15T04:19:40.381Z,97443
2018-05-15T04:22:13.004Z,97439
2018-05-15T04:24:45.341Z,97442
2018-05-15T04:27:20.891Z,97440
2018-05-15T04:29:54.334Z,97445
2018-05-15T04:32:27.759Z,97441
2018-05-15T04:35:01.849Z,97442
2018-05-15T04:37:35.734Z,97448
2018-05-15T04:40:09.475Z,97439
2018-05-15T04:42:41.834Z,97436
2018-05-15T04:45:17.318Z,97446
2018-05-15T04:47:51.250Z,97444
2018-05-15T04:50:32.712Z,97447
2018-05-15T04:53:06.350Z,97451
2018-05-15T04:55:39.621Z,97449
2018-05-15T04:58:14.397Z,97450
2018-05-15T05:00:47.083Z,97450
2018-05-15T05:03:19.321Z,97452
2018-05-15T05:05:52.917Z,97457
2018-05-15T05:08:28.512Z,97461
2018-05-15T05:11:07.595Z,97461
2018-05-15T05:13:43.892Z,97462
2018-05-15T05:16:21.893Z,97462
2018-05-15T05:18:55.715Z,97461
2018-05-15T05:21:28.011Z,97463
2018-05-15T05:24:01.275Z,97469
2018-05-15T05:26:34.974Z,97474
2018-05-15T05:29:07.419Z,97475
2018-05-15T05:31:40.738Z,97476
2018-05-15T05:34:12.676Z,97480
2018-05-15T05:36:46.813Z,97483
2018-05-15T05:39:20.682Z,97480
2018-05-15T05:41:54.594Z,97483
2018-05-15T05:44:27.019Z,97482
2018-05-15T05:46:59.529Z,97482
2018-05-15T05:49:34.138Z,97488
2018-05-15T05:52:11.615Z,97491
2018-05-15T05:54:44.831Z,97492
2018-05-15T05:57:17.795Z,97490
2018-05-15T05:59:52.992Z,97495
2018-05-15T06:02:24.877Z,97496
2018-05-15T06:04:58.334Z,97499
2018-05-15T06:07:30.980Z,97499
2018-05-15T06:10:04.253Z,97508
2018-05-15T06:12:40.195Z,97510
2018-05-15T06:15:19.696Z,97511
2018-05-15T06:17:54.398Z,97514
2018-05-15T06:20:31.714Z,97515
2018-05-15T06:23:06.713Z,97509
2018-05-15T06:25:43.855Z,97518
2018-05-15T06:28:17.796Z,97513
2018-05-15T06:30:53.395Z,97510
2018-05-15T06:33:27.249Z,97509
2018-05-15T06:36:01.500Z,97508
2018-05-15T06:38:34.907Z,97509
2018-05-15T06:41:10.718Z,97505
2018-05-15T06:43:47.091Z,97509
2018-05-15T06:46:20.592Z,97512
2018-05-15T06:48:55.355Z,97510
2018-05-15T06:51:28.597Z,97513
2018-05-15T06:54:00.672Z,97510
2018-05-15T06:56:36.359Z,97508
2018-05-15T06:59:10.016Z,97495
2018-05-15T07:01:44.957Z,97497
2018-05-15T07:04:20.276Z,97497
2018-05-15T07:06:57.192Z,97486
2018-05-15T07:09:31.016Z,97489
2018-05-15T07:12:04.795Z,97491
2018-05-15T07:14:37.751Z,97489
2018-05-15T07:17:12.756Z,97489
2018-05-15T07:19:51.633Z,97484
2018-05-15T07:22:24.972Z,97490
2018-05-15T07:24:58.276Z,97493
2018-05-15T07:27:31.653Z,97493
2018-05-15T07:30:04.057Z,97493
2018-05-15T07:32:37.479Z,97486
2018-05-15T07:35:17.874Z,97492
2018-05-15T07:37:52.736Z,97495
2018-05-15T07:40:26.377Z,97486
2018-05-15T07:43:00.777Z,97480
2018-05-15T07:45:34.992Z,97476
2018-05-15T07:48:09.344Z,97476
2018-05-15T07:50:46.154Z,97476
2018-05-15T07:53:18.721Z,97473
2018-05-15T07:55:53.334Z,97479
2018-05-15T07:58:27.035Z,97481
2018-05-15T08:01:07.016Z,97472
2018-05-15T08:03:41.559Z,97473
2018-05-15T08:06:14.956Z,97472
2018-05-15T08:08:47.760Z,97473
2018-05-15T08:11:21.253Z,97474
2018-05-15T08:13:53.773Z,97474
2018-05-15T08:16:26.953Z,97475
2018-05-15T08:19:05.950Z,97476
2018-05-15T08:21:40.422Z,97478
2018-05-15T08:24:13.391Z,97473
2018-05-15T08:26:48.035Z,97476
2018-05-15T08:29:22.991Z,97475
2018-05-15T08:31:57.561Z,97470
2018-05-15T08:34:29.317Z,97478
2018-05-15T08:37:04.916Z,97470
2018-05-15T08:39:39.680Z,97471
2018-05-15T08:42:14.831Z,97470
2018-05-15T08:44:54.122Z,97469
2018-05-15T08:47:28.957Z,97462
2018-05-15T08:50:06.224Z,97461
2018-05-15T08:52:39.854Z,97461
2018-05-15T08:55:13.637Z,97456
2018-05-15T08:57:49.135Z,97461
2018-05-15T09:00:22.234Z,97464
2018-05-15T09:02:56.833Z,97460
2018-05-15T09:05:32.020Z,97460
2018-05-15T09:08:08.016Z,97466
2018-05-15T09:10:44.290Z,97476
2018-05-15T09:13:23.137Z,97467
2018-05-15T09:16:00.759Z,97461
2018-05-15T09:18:36.017Z,97473
2018-05-15T09:21:10.075Z,97476
2018-05-15T09:23:44.778Z,97469
2018-05-15T09:26:18.571Z,97463
2018-05-15T09:28:53.315Z,97462
2018-05-15T09:31:27.374Z,97458
2018-05-15T09:34:04.214Z,97459
2018-05-15T09:36:38.953Z,97458
2018-05-15T09:39:13.930Z,97455
2018-05-15T09:41:48.311Z,97446
2018-05-15T09:44:24.696Z,97451
2018-05-15T09:46:57.967Z,97451
2018-05-15T09:49:33.943Z,97443
2018-05-15T09:52:08.918Z,97439
2018-05-15T09:54:41.595Z,97430
2018-05-15T09:57:14.741Z,97436
2018-05-15T09:59:48.552Z,97425
2018-05-15T10:02:22.735Z,97432
2018-05-15T10:04:58.358Z,97425
2018-05-15T10:07:31.747Z,97426
2018-05-15T10:10:05.499Z,97432
2018-05-15T10:12:37.515Z,97433
2018-05-15T10:15:10.658Z,97430
2018-05-15T10:17:45.240Z,97425
2018-05-15T10:20:19.723Z,97431
2018-05-15T10:22:52.699Z,97433
2018-05-15T10:25:30.475Z,97431
2018-05-15T10:28:04.668Z,97433
2018-05-15T10:30:40.155Z,97436
2018-05-15T10:33:14.711Z,97435
2018-05-15T10:35:49.493Z,97425
2018-05-15T10:38:23.454Z,97425
2018-05-15T10:40:59.839Z,97431
2018-05-15T10:43:36.822Z,97429
2018-05-15T10:46:16.676Z,97418
2018-05-15T10:48:50.496Z,97421
2018-05-15T10:51:23.699Z,97422
2018-05-15T10:53:57.676Z,97416
2018-05-15T10:56:31.871Z,97418
2018-05-15T10:59:05.137Z,97419
2018-05-15T11:01:39.470Z,97417
2018-05-15T11:04:12.258Z,97413
2018-05-15T11:06:48.296Z,97410
2018-05-15T11:09:21.677Z,97398
2018-05-15T11:11:54.799Z,97398
2018-05-15T11:14:30.154Z,97396
2018-05-15T11:17:02.938Z,97399
2018-05-15T11:19:53.023Z,97407
2018-05-15T11:22:42.254Z,97405
2018-05-15T11:25:15.816Z,97405
2018-05-15T11:27:47.950Z,97391
2018-05-15T11:30:20.974Z,97395
2018-05-15T11:32:55.255Z,97384
2018-05-15T11:35:29.298Z,97385
2018-05-15T11:38:02.775Z,97383
2018-05-15T11:40:34.654Z,97385
2018-05-15T11:43:07.575Z,97387
2018-05-15T11:45:42.492Z,97390
2018-05-15T11:48:24.395Z,97396
2018-05-15T11:50:59.528Z,97406
2018-05-15T11:53:31.619Z,97397
2018-05-15T11:56:05.136Z,97392
2018-05-15T11:58:39.830Z,97401
2018-05-15T12:01:12.530Z,97402
2018-05-15T12:03:46.056Z,97392
2018-05-15T12:06:22.297Z,97387
2018-05-15T12:08:56.012Z,97387
2018-05-15T12:11:29.334Z,97393
2018-05-15T12:14:03.523Z,97384
2018-05-15T12:16:38.174Z,97378
2018-05-15T12:19:11.516Z,97383
2018-05-15T12:21:46.657Z,97389
2018-05-15T12:24:21.473Z,97407
2018-05-15T13:05:29.998Z,97443
2018-05-15T13:08:09.896Z,97441
2018-05-15T13:10:43.256Z,97450
2018-05-15T13:13:16.959Z,97447
2018-05-15T13:15:49.371Z,97434
2018-05-15T13:18:22.237Z,97443
2018-05-15T13:20:56.098Z,97443
2018-05-15T13:23:30.600Z,97446
2018-05-15T13:26:11.236Z,97448
2018-05-15T13:28:44.657Z,97448
2018-05-15T13:31:17.094Z,97442
2018-05-15T13:33:51.560Z,97440
2018-05-15T13:36:29.932Z,97432
2018-05-15T13:39:08.379Z,97433
2018-05-15T13:41:42.175Z,97432
2018-05-15T13:44:16.011Z,97435
2018-05-15T13:46:50.374Z,97433
2018-05-15T13:49:27.633Z,97436
2018-05-15T13:52:00.796Z,97433
2018-05-15T13:57:34.017Z,97440
2018-05-15T14:00:09.492Z,97438
2018-05-15T14:02:42.699Z,97437
2018-05-15T14:05:17.889Z,97432
2018-05-15T14:07:50.258Z,97437
2018-05-15T14:10:26.695Z,97442
2018-05-15T14:12:59.393Z,97440
2018-05-15T14:15:32.835Z,97438
2018-05-15T14:18:05.341Z,97434
2018-05-15T14:20:38.721Z,97429
2018-05-15T14:23:16.915Z,97430
2018-05-15T14:25:52.057Z,97429
2018-05-15T14:28:25.304Z,97416
2018-05-15T14:30:59.568Z,97413
2018-05-15T14:33:34.388Z,97413
2018-05-15T14:36:08.879Z,97404
2018-05-15T14:38:42.335Z,97406
2018-05-15T14:41:17.351Z,97400
2018-05-15T14:43:54.158Z,97413
2018-05-15T14:46:27.338Z,97412
2018-05-15T14:49:04.652Z,97416
2018-05-15T14:51:42.490Z,97413
2018-05-15T14:54:24.279Z,97425
2018-05-15T14:56:57.512Z,97419
2018-05-15T14:59:35.276Z,97416
2018-05-15T15:02:10.989Z,97411
2018-05-15T15:07:29.592Z,97416
2018-05-15T15:10:03.253Z,97411
2018-05-15T15:12:36.893Z,97414
2018-05-15T15:15:09.757Z,97408
2018-05-15T15:17:43.988Z,97408
2018-05-15T15:20:19.660Z,97402
2018-05-15T15:22:52.912Z,97403
2018-05-15T15:25:25.594Z,97407
2018-05-15T15:28:02.813Z,97417
2018-05-15T15:30:36.377Z,97414
2018-05-15T15:33:11.035Z,97413
2018-05-15T15:35:47.775Z,97418
2018-05-15T15:38:21.112Z,97419
2018-05-15T15:40:54.974Z,97417
2018-05-15T15:43:28.331Z,97419
2018-05-15T15:46:01.716Z,97419
2018-05-15T15:48:36.355Z,97421
2018-05-15T15:51:10.497Z,97421
2018-05-15T15:53:45.193Z,97427
2018-05-15T15:56:18.416Z,97428
2018-05-15T15:58:50.859Z,97435
2018-05-15T16:34:15.056Z,97428
2018-05-15T16:36:52.616Z,97424
2018-05-15T16:39:27.336Z,97427
2018-05-15T16:42:00.361Z,97429
2018-05-15T16:44:31.970Z,97429
2018-05-15T16:47:05.818Z,97428
2018-05-15T16:49:38.354Z,97419
2018-05-15T16:52:11.035Z,97425
2018-05-15T16:54:43.560Z,97429
2018-05-15T16:57:16.437Z,97433
2018-05-15T16:59:48.535Z,97443
2018-05-15T17:02:21.076Z,97445
2018-05-15T17:04:55.420Z,97447
2018-05-15T17:07:28.271Z,97446
2018-05-15T17:10:00.840Z,97445
2018-05-15T17:12:33.491Z,97445
2018-05-15T17:15:08.672Z,97455
2018-05-15T17:17:44.297Z,97452
2018-05-15T17:20:17.932Z,97458
2018-05-15T17:22:52.090Z,97454
2018-05-15T17:25:26.935Z,97465
2018-05-15T17:28:00.291Z,97462
2018-05-15T17:30:37.792Z,97464
2018-05-15T17:33:12.072Z,97462
2018-05-15T17:35:48.432Z,97463
2018-05-15T17:38:24.618Z,97464
2018-05-15T17:41:01.292Z,97467
2018-05-15T17:43:37.311Z,97468
2018-05-15T17:46:13.417Z,97470
2018-05-15T17:48:48.913Z,97475
2018-05-15T17:51:25.848Z,97481
2018-05-15T17:54:00.431Z,97484
2018-05-15T19:08:12.460Z,97503
2018-05-15T19:10:46.901Z,97510
2018-05-15T19:13:20.847Z,97515
2018-05-15T19:15:54.923Z,97518
2018-05-15T19:18:28.820Z,97523
2018-05-15T19:21:03.204Z,97524
2018-05-15T19:23:37.960Z,97528
2018-05-15T19:26:14.699Z,97537
2018-05-15T19:28:49.516Z,97541
2018-05-15T19:31:29.578Z,97543
2018-05-15T19:34:04.068Z,97540
2018-05-15T19:36:38.721Z,97543
2018-05-15T19:39:12.338Z,97545
2018-05-15T19:41:46.342Z,97537
2018-05-15T19:44:19.060Z,97537
2018-05-15T19:46:51.840Z,97532
2018-05-15T19:49:24.743Z,97530
2018-05-15T19:51:57.100Z,97531
2018-05-15T19:54:31.200Z,97531
2018-05-15T19:57:05.462Z,97536
2018-05-15T19:59:41.295Z,97538
2018-05-15T20:02:15.104Z,97533
2018-05-15T20:04:48.704Z,97530
2018-05-15T20:07:23.826Z,97525
2018-05-15T20:09:56.699Z,97521
2018-05-15T20:12:32.222Z,97520
2018-05-15T20:15:07.009Z,97526
2018-05-15T20:17:39.844Z,97536
2018-05-15T20:20:13.665Z,97532
2018-05-15T20:22:48.598Z,97541
2018-05-15T20:25:24.228Z,97541
2018-05-15T20:27:58.660Z,97534
2018-05-15T20:30:33.582Z,97532
2018-05-15T20:33:07.040Z,97532
2018-05-15T20:35:41.479Z,97535
2018-05-15T20:38:13.804Z,97545
2018-05-15T20:40:47.419Z,97549
2018-05-15T20:43:20.658Z,97549
2018-05-15T20:45:55.962Z,97553
2018-05-15T20:48:28.978Z,97556
2018-05-15T20:51:02.266Z,97557
2018-05-15T20:53:35.882Z,97556
2018-05-15T20:56:10.401Z,97560
2018-05-15T20:58:44.506Z,97554
2018-05-15T21:01:20.103Z,97559
2018-05-15T21:03:53.161Z,97566
2018-05-15T21:06:27.858Z,97561
2018-05-15T21:09:01.304Z,97564
2018-05-15T21:11:36.118Z,97565
2018-05-15T21:14:09.363Z,97563
2018-05-15T21:16:42.843Z,97566
2018-05-15T21:19:17.562Z,97561
2018-05-15T21:21:51.046Z,97572
2018-05-15T21:24:24.099Z,97571
2018-05-15T21:26:58.421Z,97568
2018-05-15T21:29:31.279Z,97570
2018-05-15T21:32:05.466Z,97569
2018-05-15T21:34:38.222Z,97572
2018-05-15T21:37:11.060Z,97568
2018-05-15T21:39:43.730Z,97574
2018-05-15T21:42:17.297Z,97567
2018-05-15T21:44:50.567Z,97565
2018-05-15T21:47:25.640Z,97568
2018-05-15T21:49:58.561Z,97573
2018-05-15T21:52:31.380Z,97570
2018-05-15T21:55:06.060Z,97572
2018-05-15T21:57:43.284Z,97569
2018-05-15T22:00:16.606Z,97565
2018-05-15T22:02:50.366Z,97563
2018-05-15T22:05:24.559Z,97560
2018-05-15T22:08:00.462Z,97567
2018-05-15T22:32:46.888Z,97553
2018-05-15T22:35:21.131Z,97553
2018-05-15T22:37:53.905Z,97554
2018-05-15T22:40:27.844Z,97552
2018-05-15T22:43:01.247Z,97556
2018-05-15T22:45:34.855Z,97556
2018-05-15T22:48:08.529Z,97555
2018-05-15T22:50:41.423Z,97552
2018-05-15T22:53:14.846Z,97551
2018-05-15T22:55:47.484Z,97549
2018-05-15T22:58:20.927Z,97551
2018-05-15T23:00:53.304Z,97547
2018-05-15T23:03:26.246Z,97543
2018-05-15T23:06:00.070Z,97540
2018-05-15T23:08:33.621Z,97544
2018-05-15T23:11:06.145Z,97545
2018-05-15T23:13:39.508Z,97543
2018-05-15T23:16:12.193Z,97540
2018-05-15T23:18:44.844Z,97542
2018-05-15T23:21:17.065Z,97538
2018-05-15T23:23:50.304Z,97536
2018-05-15T23:26:25.294Z,97535
2018-05-15T23:28:58.169Z,97530
2018-05-15T23:31:30.489Z,97531
2018-05-15T23:34:03.027Z,97536
2018-05-15T23:36:35.406Z,97534
2018-05-15T23:39:09.206Z,97537
2018-05-15T23:41:41.604Z,97534
2018-05-15T23:44:16.883Z,97534
2018-05-15T23:46:49.387Z,97540
2018-05-15T23:49:22.131Z,97537
2018-05-15T23:51:55.593Z,97534
2018-05-15T23:54:27.947Z,97533
2018-05-15T23:57:00.207Z,97534
2018-05-15T23:59:32.725Z,97530
